sensor_id;sensor_type;location;lat;lon;timestamp;P1;durP1;ratioP1;P2;durP2;ratioP2
47545;SDS011;50104;52.002;4.688;2023-09-18T00:01:55;30.60;;;22.98;;
47545;SDS011;50104;52.002;4.688;2023-09-18T00:06:56;30.42;;;23.02;;
47545;SDS011;50104;52.002;4.688;2023-09-18T00:11:57;29.25;;;21.83;;
47545;SDS011;50104;52.002;4.688;2023-09-18T00:16:58;30.25;;;22.58;;
47545;SDS011;50104;52.002;4.688;2023-09-18T00:21:58;27.50;;;22.20;;
47545;SDS011;50104;52.002;4.688;2023-09-18T00:27:00;28.77;;;22.77;;
47545;SDS011;50104;52.002;4.688;2023-09-18T00:32:01;33.53;;;24.42;;
47545;SDS011;50104;52.002;4.688;2023-09-18T00:37:02;32.70;;;24.30;;
47545;SDS011;50104;52.002;4.688;2023-09-18T00:42:03;34.13;;;24.67;;
47545;SDS011;50104;52.002;4.688;2023-09-18T00:47:04;34.22;;;25.15;;
47545;SDS011;50104;52.002;4.688;2023-09-18T00:52:06;30.30;;;24.15;;
47545;SDS011;50104;52.002;4.688;2023-09-18T00:57:08;33.05;;;23.33;;
47545;SDS011;50104;52.002;4.688;2023-09-18T01:02:10;31.48;;;23.00;;
47545;SDS011;50104;52.002;4.688;2023-09-18T01:07:11;31.98;;;23.70;;
47545;SDS011;50104;52.002;4.688;2023-09-18T01:17:35;31.55;;;23.48;;
47545;SDS011;50104;52.002;4.688;2023-09-18T01:22:40;31.13;;;23.33;;
47545;SDS011;50104;52.002;4.688;2023-09-18T01:27:41;31.95;;;23.52;;
47545;SDS011;50104;52.002;4.688;2023-09-18T01:32:42;28.73;;;23.42;;
47545;SDS011;50104;52.002;4.688;2023-09-18T01:37:44;28.45;;;22.75;;
47545;SDS011;50104;52.002;4.688;2023-09-18T01:42:45;30.08;;;22.67;;
47545;SDS011;50104;52.002;4.688;2023-09-18T01:47:46;30.92;;;23.40;;
47545;SDS011;50104;52.002;4.688;2023-09-18T01:52:47;30.33;;;22.73;;
47545;SDS011;50104;52.002;4.688;2023-09-18T01:57:48;29.10;;;21.35;;
47545;SDS011;50104;52.002;4.688;2023-09-18T02:02:49;27.98;;;22.48;;
47545;SDS011;50104;52.002;4.688;2023-09-18T02:07:49;29.33;;;22.60;;
47545;SDS011;50104;52.002;4.688;2023-09-18T02:12:51;28.98;;;23.17;;
47545;SDS011;50104;52.002;4.688;2023-09-18T02:17:52;32.25;;;23.48;;
47545;SDS011;50104;52.002;4.688;2023-09-18T02:22:53;27.27;;;22.77;;
47545;SDS011;50104;52.002;4.688;2023-09-18T02:27:53;28.58;;;23.20;;
47545;SDS011;50104;52.002;4.688;2023-09-18T02:32:55;30.73;;;22.08;;
47545;SDS011;50104;52.002;4.688;2023-09-18T02:37:56;28.52;;;23.25;;
47545;SDS011;50104;52.002;4.688;2023-09-18T02:42:57;32.38;;;24.15;;
47545;SDS011;50104;52.002;4.688;2023-09-18T02:47:57;35.60;;;24.40;;
47545;SDS011;50104;52.002;4.688;2023-09-18T02:52:58;27.77;;;22.65;;
47545;SDS011;50104;52.002;4.688;2023-09-18T02:57:59;29.77;;;23.48;;
47545;SDS011;50104;52.002;4.688;2023-09-18T03:03:00;29.00;;;22.73;;
47545;SDS011;50104;52.002;4.688;2023-09-18T03:08:01;26.60;;;21.67;;
47545;SDS011;50104;52.002;4.688;2023-09-18T03:13:02;29.50;;;22.52;;
47545;SDS011;50104;52.002;4.688;2023-09-18T03:18:05;29.58;;;23.50;;
47545;SDS011;50104;52.002;4.688;2023-09-18T03:23:07;33.95;;;23.70;;
47545;SDS011;50104;52.002;4.688;2023-09-18T03:28:08;28.05;;;23.42;;
47545;SDS011;50104;52.002;4.688;2023-09-18T03:33:08;29.15;;;22.70;;
47545;SDS011;50104;52.002;4.688;2023-09-18T03:38:09;31.77;;;22.20;;
47545;SDS011;50104;52.002;4.688;2023-09-18T03:43:10;28.52;;;21.25;;
47545;SDS011;50104;52.002;4.688;2023-09-18T03:48:12;26.70;;;18.88;;
47545;SDS011;50104;52.002;4.688;2023-09-18T03:53:12;24.48;;;17.27;;
47545;SDS011;50104;52.002;4.688;2023-09-18T03:58:13;24.50;;;17.55;;
47545;SDS011;50104;52.002;4.688;2023-09-18T04:03:14;23.75;;;16.02;;
47545;SDS011;50104;52.002;4.688;2023-09-18T04:08:15;18.27;;;14.30;;
47545;SDS011;50104;52.002;4.688;2023-09-18T04:13:15;12.00;;;10.05;;
47545;SDS011;50104;52.002;4.688;2023-09-18T04:18:16;12.07;;;7.72;;
47545;SDS011;50104;52.002;4.688;2023-09-18T04:23:18;8.43;;;6.60;;
47545;SDS011;50104;52.002;4.688;2023-09-18T04:28:22;9.02;;;8.00;;
47545;SDS011;50104;52.002;4.688;2023-09-18T04:33:23;7.25;;;6.03;;
47545;SDS011;50104;52.002;4.688;2023-09-18T04:38:23;8.05;;;6.07;;
47545;SDS011;50104;52.002;4.688;2023-09-18T04:43:24;8.65;;;6.07;;
47545;SDS011;50104;52.002;4.688;2023-09-18T04:48:25;8.98;;;7.25;;
47545;SDS011;50104;52.002;4.688;2023-09-18T04:53:30;12.32;;;7.32;;
47545;SDS011;50104;52.002;4.688;2023-09-18T04:58:32;13.18;;;8.15;;
47545;SDS011;50104;52.002;4.688;2023-09-18T05:03:33;10.10;;;7.18;;
47545;SDS011;50104;52.002;4.688;2023-09-18T05:08:34;8.38;;;7.32;;
47545;SDS011;50104;52.002;4.688;2023-09-18T05:13:35;12.60;;;7.82;;
47545;SDS011;50104;52.002;4.688;2023-09-18T05:18:36;12.77;;;7.95;;
47545;SDS011;50104;52.002;4.688;2023-09-18T05:23:38;10.98;;;7.50;;
47545;SDS011;50104;52.002;4.688;2023-09-18T05:28:38;10.90;;;8.10;;
47545;SDS011;50104;52.002;4.688;2023-09-18T05:33:39;13.68;;;7.82;;
47545;SDS011;50104;52.002;4.688;2023-09-18T05:38:40;9.98;;;7.63;;
47545;SDS011;50104;52.002;4.688;2023-09-18T05:43:41;10.23;;;8.35;;
47545;SDS011;50104;52.002;4.688;2023-09-18T05:48:41;12.32;;;8.00;;
47545;SDS011;50104;52.002;4.688;2023-09-18T05:53:42;13.18;;;9.02;;
47545;SDS011;50104;52.002;4.688;2023-09-18T05:58:43;12.38;;;8.98;;
47545;SDS011;50104;52.002;4.688;2023-09-18T06:03:44;11.20;;;8.88;;
47545;SDS011;50104;52.002;4.688;2023-09-18T06:08:45;10.73;;;8.35;;
47545;SDS011;50104;52.002;4.688;2023-09-18T06:13:46;11.18;;;8.80;;
47545;SDS011;50104;52.002;4.688;2023-09-18T06:18:46;10.77;;;8.63;;
47545;SDS011;50104;52.002;4.688;2023-09-18T06:23:47;10.35;;;8.10;;
47545;SDS011;50104;52.002;4.688;2023-09-18T06:28:48;11.68;;;8.30;;
47545;SDS011;50104;52.002;4.688;2023-09-18T06:33:49;11.88;;;7.95;;
47545;SDS011;50104;52.002;4.688;2023-09-18T06:38:50;12.50;;;7.30;;
47545;SDS011;50104;52.002;4.688;2023-09-18T06:43:50;11.82;;;7.70;;
47545;SDS011;50104;52.002;4.688;2023-09-18T06:48:52;9.88;;;7.03;;
47545;SDS011;50104;52.002;4.688;2023-09-18T06:53:53;8.43;;;7.28;;
47545;SDS011;50104;52.002;4.688;2023-09-18T06:58:54;7.53;;;6.72;;
47545;SDS011;50104;52.002;4.688;2023-09-18T07:03:55;8.38;;;6.03;;
47545;SDS011;50104;52.002;4.688;2023-09-18T07:08:56;8.80;;;5.18;;
47545;SDS011;50104;52.002;4.688;2023-09-18T07:13:57;5.35;;;4.65;;
47545;SDS011;50104;52.002;4.688;2023-09-18T07:18:58;7.38;;;4.70;;
47545;SDS011;50104;52.002;4.688;2023-09-18T07:23:58;5.78;;;4.60;;
47545;SDS011;50104;52.002;4.688;2023-09-18T07:28:59;7.47;;;4.40;;
47545;SDS011;50104;52.002;4.688;2023-09-18T07:34:01;5.97;;;3.72;;
47545;SDS011;50104;52.002;4.688;2023-09-18T07:39:02;4.80;;;4.10;;
47545;SDS011;50104;52.002;4.688;2023-09-18T07:44:04;7.88;;;4.78;;
47545;SDS011;50104;52.002;4.688;2023-09-18T07:49:05;6.43;;;3.85;;
47545;SDS011;50104;52.002;4.688;2023-09-18T07:54:06;6.57;;;4.57;;
47545;SDS011;50104;52.002;4.688;2023-09-18T07:59:07;8.88;;;4.35;;
47545;SDS011;50104;52.002;4.688;2023-09-18T08:04:10;5.78;;;5.13;;
47545;SDS011;50104;52.002;4.688;2023-09-18T08:09:11;6.32;;;4.85;;
47545;SDS011;50104;52.002;4.688;2023-09-18T08:14:14;6.38;;;5.55;;
47545;SDS011;50104;52.002;4.688;2023-09-18T08:19:15;10.35;;;6.28;;
47545;SDS011;50104;52.002;4.688;2023-09-18T08:24:20;8.50;;;6.35;;
47545;SDS011;50104;52.002;4.688;2023-09-18T08:29:21;7.20;;;6.47;;
47545;SDS011;50104;52.002;4.688;2023-09-18T08:34:23;7.82;;;7.05;;
47545;SDS011;50104;52.002;4.688;2023-09-18T08:39:23;7.93;;;6.90;;
47545;SDS011;50104;52.002;4.688;2023-09-18T08:44:25;9.55;;;6.03;;
47545;SDS011;50104;52.002;4.688;2023-09-18T08:49:27;5.95;;;5.43;;
47545;SDS011;50104;52.002;4.688;2023-09-18T08:54:29;6.40;;;4.68;;
47545;SDS011;50104;52.002;4.688;2023-09-18T08:59:30;5.07;;;4.55;;
47545;SDS011;50104;52.002;4.688;2023-09-18T09:04:31;8.45;;;4.78;;
47545;SDS011;50104;52.002;4.688;2023-09-18T09:09:32;5.30;;;4.80;;
47545;SDS011;50104;52.002;4.688;2023-09-18T09:14:33;5.88;;;4.75;;
47545;SDS011;50104;52.002;4.688;2023-09-18T09:19:35;5.57;;;4.45;;
47545;SDS011;50104;52.002;4.688;2023-09-18T09:24:42;4.40;;;4.00;;
47545;SDS011;50104;52.002;4.688;2023-09-18T09:29:44;6.00;;;3.60;;
47545;SDS011;50104;52.002;4.688;2023-09-18T09:34:58;4.80;;;3.47;;
47545;SDS011;50104;52.002;4.688;2023-09-18T09:40:03;3.70;;;3.38;;
47545;SDS011;50104;52.002;4.688;2023-09-18T09:45:15;4.25;;;3.47;;
47545;SDS011;50104;52.002;4.688;2023-09-18T09:50:16;3.55;;;3.35;;
47545;SDS011;50104;52.002;4.688;2023-09-18T09:55:19;4.97;;;4.57;;
47545;SDS011;50104;52.002;4.688;2023-09-18T10:00:25;4.22;;;3.83;;
47545;SDS011;50104;52.002;4.688;2023-09-18T10:05:44;5.97;;;4.53;;
47545;SDS011;50104;52.002;4.688;2023-09-18T10:10:55;7.03;;;4.78;;
47545;SDS011;50104;52.002;4.688;2023-09-18T10:16:07;4.93;;;4.53;;
47545;SDS011;50104;52.002;4.688;2023-09-18T10:26:32;5.35;;;4.70;;
47545;SDS011;50104;52.002;4.688;2023-09-18T10:31:38;8.40;;;4.28;;
47545;SDS011;50104;52.002;4.688;2023-09-18T10:36:41;4.50;;;3.78;;
47545;SDS011;50104;52.002;4.688;2023-09-18T10:41:44;6.53;;;4.63;;
47545;SDS011;50104;52.002;4.688;2023-09-18T10:46:49;5.43;;;4.22;;
47545;SDS011;50104;52.002;4.688;2023-09-18T10:51:55;4.47;;;4.05;;
47545;SDS011;50104;52.002;4.688;2023-09-18T10:56:56;5.07;;;3.50;;
47545;SDS011;50104;52.002;4.688;2023-09-18T11:02:04;4.80;;;3.80;;
47545;SDS011;50104;52.002;4.688;2023-09-18T11:07:07;4.30;;;3.90;;
47545;SDS011;50104;52.002;4.688;2023-09-18T11:12:09;5.10;;;4.60;;
47545;SDS011;50104;52.002;4.688;2023-09-18T11:22:35;6.40;;;4.60;;
47545;SDS011;50104;52.002;4.688;2023-09-18T11:27:53;5.85;;;3.50;;
47545;SDS011;50104;52.002;4.688;2023-09-18T11:32:57;5.38;;;4.35;;
47545;SDS011;50104;52.002;4.688;2023-09-18T11:38:08;4.07;;;3.65;;
47545;SDS011;50104;52.002;4.688;2023-09-18T11:43:20;5.57;;;4.18;;
47545;SDS011;50104;52.002;4.688;2023-09-18T11:48:30;4.10;;;3.70;;
47545;SDS011;50104;52.002;4.688;2023-09-18T11:53:34;6.97;;;4.60;;
47545;SDS011;50104;52.002;4.688;2023-09-18T11:58:49;4.85;;;4.25;;
47545;SDS011;50104;52.002;4.688;2023-09-18T12:03:55;4.80;;;3.13;;
47545;SDS011;50104;52.002;4.688;2023-09-18T12:09:01;4.28;;;3.00;;
47545;SDS011;50104;52.002;4.688;2023-09-18T12:14:04;6.00;;;3.50;;
47545;SDS011;50104;52.002;4.688;2023-09-18T12:19:05;3.42;;;3.15;;
47545;SDS011;50104;52.002;4.688;2023-09-18T12:24:15;3.35;;;3.00;;
47545;SDS011;50104;52.002;4.688;2023-09-18T12:29:25;5.85;;;2.85;;
47545;SDS011;50104;52.002;4.688;2023-09-18T12:34:26;4.13;;;3.30;;
47545;SDS011;50104;52.002;4.688;2023-09-18T12:39:31;5.15;;;3.38;;
47545;SDS011;50104;52.002;4.688;2023-09-18T12:44:33;4.68;;;2.97;;
47545;SDS011;50104;52.002;4.688;2023-09-18T12:49:34;5.57;;;3.03;;
47545;SDS011;50104;52.002;4.688;2023-09-18T12:59:45;3.33;;;3.00;;
47545;SDS011;50104;52.002;4.688;2023-09-18T13:04:53;4.70;;;2.42;;
47545;SDS011;50104;52.002;4.688;2023-09-18T13:10:00;3.40;;;2.70;;
47545;SDS011;50104;52.002;4.688;2023-09-18T13:15:10;5.72;;;2.72;;
47545;SDS011;50104;52.002;4.688;2023-09-18T13:20:13;3.13;;;2.20;;
47545;SDS011;50104;52.002;4.688;2023-09-18T13:25:24;2.83;;;2.17;;
47545;SDS011;50104;52.002;4.688;2023-09-18T13:30:29;2.95;;;2.20;;
47545;SDS011;50104;52.002;4.688;2023-09-18T13:35:31;4.40;;;2.30;;
47545;SDS011;50104;52.002;4.688;2023-09-18T13:40:34;3.85;;;2.40;;
47545;SDS011;50104;52.002;4.688;2023-09-18T13:45:38;4.88;;;2.50;;
47545;SDS011;50104;52.002;4.688;2023-09-18T13:50:39;5.03;;;2.88;;
47545;SDS011;50104;52.002;4.688;2023-09-18T13:55:40;5.18;;;2.83;;
47545;SDS011;50104;52.002;4.688;2023-09-18T14:00:41;9.13;;;2.60;;
47545;SDS011;50104;52.002;4.688;2023-09-18T14:05:43;5.10;;;2.53;;
47545;SDS011;50104;52.002;4.688;2023-09-18T14:10:44;6.65;;;2.17;;
47545;SDS011;50104;52.002;4.688;2023-09-18T14:15:45;3.45;;;2.40;;
47545;SDS011;50104;52.002;4.688;2023-09-18T14:20:46;3.40;;;2.15;;
47545;SDS011;50104;52.002;4.688;2023-09-18T14:25:47;4.07;;;2.72;;
47545;SDS011;50104;52.002;4.688;2023-09-18T14:30:47;3.63;;;2.50;;
47545;SDS011;50104;52.002;4.688;2023-09-18T14:35:49;7.60;;;2.72;;
47545;SDS011;50104;52.002;4.688;2023-09-18T14:40:50;3.75;;;2.78;;
47545;SDS011;50104;52.002;4.688;2023-09-18T14:45:50;6.10;;;2.00;;
47545;SDS011;50104;52.002;4.688;2023-09-18T14:50:55;3.15;;;1.65;;
47545;SDS011;50104;52.002;4.688;2023-09-18T14:55:57;2.40;;;0.70;;
47545;SDS011;50104;52.002;4.688;2023-09-18T15:00:58;1.33;;;0.80;;
47545;SDS011;50104;52.002;4.688;2023-09-18T15:05:59;3.03;;;0.93;;
47545;SDS011;50104;52.002;4.688;2023-09-18T15:11:01;3.55;;;1.08;;
47545;SDS011;50104;52.002;4.688;2023-09-18T15:16:03;1.38;;;0.70;;
47545;SDS011;50104;52.002;4.688;2023-09-18T15:21:05;1.95;;;1.02;;
47545;SDS011;50104;52.002;4.688;2023-09-18T15:26:06;3.88;;;1.27;;
47545;SDS011;50104;52.002;4.688;2023-09-18T15:31:07;2.33;;;1.02;;
47545;SDS011;50104;52.002;4.688;2023-09-18T15:36:08;3.08;;;1.10;;
47545;SDS011;50104;52.002;4.688;2023-09-18T15:41:09;4.57;;;1.50;;
47545;SDS011;50104;52.002;4.688;2023-09-18T15:46:09;5.00;;;1.20;;
47545;SDS011;50104;52.002;4.688;2023-09-18T15:51:10;2.55;;;2.05;;
47545;SDS011;50104;52.002;4.688;2023-09-18T15:56:11;3.58;;;1.90;;
47545;SDS011;50104;52.002;4.688;2023-09-18T16:01:13;4.18;;;2.05;;
47545;SDS011;50104;52.002;4.688;2023-09-18T16:06:15;5.65;;;1.80;;
47545;SDS011;50104;52.002;4.688;2023-09-18T16:11:20;4.82;;;1.92;;
47545;SDS011;50104;52.002;4.688;2023-09-18T16:16:21;3.10;;;2.05;;
47545;SDS011;50104;52.002;4.688;2023-09-18T16:21:22;3.88;;;1.95;;
47545;SDS011;50104;52.002;4.688;2023-09-18T16:26:24;2.42;;;1.90;;
47545;SDS011;50104;52.002;4.688;2023-09-18T16:31:24;7.85;;;1.30;;
47545;SDS011;50104;52.002;4.688;2023-09-18T16:36:25;4.22;;;1.40;;
47545;SDS011;50104;52.002;4.688;2023-09-18T16:41:27;3.47;;;1.20;;
47545;SDS011;50104;52.002;4.688;2023-09-18T16:46:28;3.50;;;1.60;;
47545;SDS011;50104;52.002;4.688;2023-09-18T16:51:29;5.10;;;1.80;;
47545;SDS011;50104;52.002;4.688;2023-09-18T16:56:30;4.55;;;2.15;;
47545;SDS011;50104;52.002;4.688;2023-09-18T17:01:31;6.05;;;1.48;;
47545;SDS011;50104;52.002;4.688;2023-09-18T17:06:32;4.13;;;1.20;;
47545;SDS011;50104;52.002;4.688;2023-09-18T17:11:36;7.43;;;2.00;;
47545;SDS011;50104;52.002;4.688;2023-09-18T17:16:36;8.25;;;2.10;;
47545;SDS011;50104;52.002;4.688;2023-09-18T17:21:37;5.15;;;1.60;;
47545;SDS011;50104;52.002;4.688;2023-09-18T17:26:38;7.40;;;1.73;;
47545;SDS011;50104;52.002;4.688;2023-09-18T17:31:39;5.65;;;1.80;;
47545;SDS011;50104;52.002;4.688;2023-09-18T17:36:40;8.55;;;2.35;;
47545;SDS011;50104;52.002;4.688;2023-09-18T17:41:42;6.32;;;1.77;;
47545;SDS011;50104;52.002;4.688;2023-09-18T17:46:44;9.90;;;1.80;;
47545;SDS011;50104;52.002;4.688;2023-09-18T17:51:46;9.43;;;1.70;;
47545;SDS011;50104;52.002;4.688;2023-09-18T17:56:46;8.77;;;1.80;;
47545;SDS011;50104;52.002;4.688;2023-09-18T18:01:47;5.78;;;2.08;;
47545;SDS011;50104;52.002;4.688;2023-09-18T18:06:48;13.02;;;1.95;;
47545;SDS011;50104;52.002;4.688;2023-09-18T18:11:49;6.95;;;1.95;;
47545;SDS011;50104;52.002;4.688;2023-09-18T18:16:50;9.65;;;2.15;;
47545;SDS011;50104;52.002;4.688;2023-09-18T18:21:51;7.88;;;2.35;;
47545;SDS011;50104;52.002;4.688;2023-09-18T18:26:52;9.90;;;2.08;;
47545;SDS011;50104;52.002;4.688;2023-09-18T18:31:53;7.78;;;2.00;;
47545;SDS011;50104;52.002;4.688;2023-09-18T18:36:55;8.05;;;2.30;;
47545;SDS011;50104;52.002;4.688;2023-09-18T18:41:55;13.00;;;3.40;;
47545;SDS011;50104;52.002;4.688;2023-09-18T18:46:56;16.52;;;2.80;;
47545;SDS011;50104;52.002;4.688;2023-09-18T18:51:57;14.75;;;2.70;;
47545;SDS011;50104;52.002;4.688;2023-09-18T18:56:58;13.45;;;2.47;;
47545;SDS011;50104;52.002;4.688;2023-09-18T19:01:59;11.80;;;3.20;;
47545;SDS011;50104;52.002;4.688;2023-09-18T19:07:01;13.23;;;3.67;;
47545;SDS011;50104;52.002;4.688;2023-09-18T19:12:04;17.90;;;3.03;;
47545;SDS011;50104;52.002;4.688;2023-09-18T19:17:06;15.23;;;3.30;;
47545;SDS011;50104;52.002;4.688;2023-09-18T19:22:06;16.17;;;3.45;;
47545;SDS011;50104;52.002;4.688;2023-09-18T19:27:07;17.35;;;3.85;;
47545;SDS011;50104;52.002;4.688;2023-09-18T19:32:08;9.02;;;2.72;;
47545;SDS011;50104;52.002;4.688;2023-09-18T19:37:10;7.45;;;2.30;;
47545;SDS011;50104;52.002;4.688;2023-09-18T19:42:11;5.82;;;2.00;;
47545;SDS011;50104;52.002;4.688;2023-09-18T19:47:11;9.77;;;2.10;;
47545;SDS011;50104;52.002;4.688;2023-09-18T19:52:12;8.85;;;2.03;;
47545;SDS011;50104;52.002;4.688;2023-09-18T19:57:14;8.68;;;2.08;;
47545;SDS011;50104;52.002;4.688;2023-09-18T20:02:16;7.00;;;2.42;;
47545;SDS011;50104;52.002;4.688;2023-09-18T20:07:17;7.97;;;2.80;;
47545;SDS011;50104;52.002;4.688;2023-09-18T20:12:17;13.48;;;2.95;;
47545;SDS011;50104;52.002;4.688;2023-09-18T20:17:18;8.40;;;2.90;;
47545;SDS011;50104;52.002;4.688;2023-09-18T20:22:21;6.85;;;1.92;;
47545;SDS011;50104;52.002;4.688;2023-09-18T20:27:22;5.63;;;1.58;;
47545;SDS011;50104;52.002;4.688;2023-09-18T20:32:22;5.40;;;1.48;;
47545;SDS011;50104;52.002;4.688;2023-09-18T20:37:23;6.97;;;1.45;;
47545;SDS011;50104;52.002;4.688;2023-09-18T20:42:24;3.95;;;1.17;;
47545;SDS011;50104;52.002;4.688;2023-09-18T20:47:26;4.35;;;1.08;;
47545;SDS011;50104;52.002;4.688;2023-09-18T20:52:28;5.10;;;1.23;;
47545;SDS011;50104;52.002;4.688;2023-09-18T20:57:29;6.75;;;1.40;;
47545;SDS011;50104;52.002;4.688;2023-09-18T21:02:30;6.40;;;1.20;;
47545;SDS011;50104;52.002;4.688;2023-09-18T21:07:31;7.85;;;1.30;;
47545;SDS011;50104;52.002;4.688;2023-09-18T21:12:31;6.28;;;1.55;;
47545;SDS011;50104;52.002;4.688;2023-09-18T21:17:32;10.13;;;1.58;;
47545;SDS011;50104;52.002;4.688;2023-09-18T21:22:35;9.30;;;1.38;;
47545;SDS011;50104;52.002;4.688;2023-09-18T21:27:36;11.88;;;1.67;;
47545;SDS011;50104;52.002;4.688;2023-09-18T21:32:37;7.53;;;1.35;;
47545;SDS011;50104;52.002;4.688;2023-09-18T21:37:38;5.93;;;1.15;;
47545;SDS011;50104;52.002;4.688;2023-09-18T21:42:38;6.78;;;1.20;;
47545;SDS011;50104;52.002;4.688;2023-09-18T21:47:39;5.00;;;1.13;;
47545;SDS011;50104;52.002;4.688;2023-09-18T21:52:40;5.05;;;1.20;;
47545;SDS011;50104;52.002;4.688;2023-09-18T21:57:41;3.75;;;1.40;;
47545;SDS011;50104;52.002;4.688;2023-09-18T22:02:42;6.78;;;0.98;;
47545;SDS011;50104;52.002;4.688;2023-09-18T22:07:43;6.82;;;1.50;;
47545;SDS011;50104;52.002;4.688;2023-09-18T22:12:43;5.47;;;1.10;;
47545;SDS011;50104;52.002;4.688;2023-09-18T22:17:44;7.03;;;1.20;;
47545;SDS011;50104;52.002;4.688;2023-09-18T22:22:47;3.80;;;1.20;;
47545;SDS011;50104;52.002;4.688;2023-09-18T22:27:48;10.82;;;1.15;;
47545;SDS011;50104;52.002;4.688;2023-09-18T22:32:49;4.55;;;1.38;;
47545;SDS011;50104;52.002;4.688;2023-09-18T22:37:53;5.55;;;0.93;;
47545;SDS011;50104;52.002;4.688;2023-09-18T22:54:57;6.10;;;1.35;;
47545;SDS011;50104;52.002;4.688;2023-09-18T22:59:59;5.82;;;1.23;;
47545;SDS011;50104;52.002;4.688;2023-09-18T23:05:00;9.68;;;2.35;;
47545;SDS011;50104;52.002;4.688;2023-09-18T23:10:03;8.98;;;1.60;;
47545;SDS011;50104;52.002;4.688;2023-09-18T23:15:05;7.75;;;1.20;;
47545;SDS011;50104;52.002;4.688;2023-09-18T23:20:08;2.97;;;1.10;;
47545;SDS011;50104;52.002;4.688;2023-09-18T23:25:12;5.97;;;1.17;;
47545;SDS011;50104;52.002;4.688;2023-09-18T23:30:14;4.55;;;1.30;;
47545;SDS011;50104;52.002;4.688;2023-09-18T23:35:20;3.67;;;1.40;;
47545;SDS011;50104;52.002;4.688;2023-09-18T23:40:24;3.15;;;1.23;;
47545;SDS011;50104;52.002;4.688;2023-09-18T23:45:29;2.78;;;1.17;;
47545;SDS011;50104;52.002;4.688;2023-09-18T23:50:34;2.63;;;1.17;;
47545;SDS011;50104;52.002;4.688;2023-09-18T23:55:36;5.05;;;1.55;;
